Date,TemperatureHighF,TemperatureAvgF,TemperatureLowF,DewpointHighF,DewpointAvgF,DewpointLowF,HumidityHigh,HumidityAvg,HumidityLow,PressureMaxIn,PressureMinIn,WindSpeedMaxMPH,WindSpeedAvgMPH,GustSpeedMaxMPH,PrecipitationSumIn
2013-1-1,48.2,44.6,38.5,34.8,22.0,2.0,66,43,20,29.87,29.75,6,1,6,0.47
2013-1-2,47.7,42.0,37.2,33.9,22.5,14.1,64,47,27,29.87,29.69,7,1,7,0.04
2013-1-3,44.6,37.0,26.1,30.5,19.8,1.5,67,51,30,29.99,29.84,6,1,6,0.04
2013-1-4,62.1,34.3,22.8,19.3,1.4,-7.2,37,25,17,30.02,29.93,8,2,8,0.04
2013-1-5,55.4,37.1,24.3,17.7,2.7,-6.6,42,23,17,30.05,29.93,6,2,6,0.00
2013-1-6,68.4,44.8,31.8,21.9,13.4,-0.4,46,29,17,29.93,29.81,8,2,8,0.04
2013-1-7,66.9,39.5,26.1,21.3,5.4,-3.4,41,25,17,30.11,29.90,6,2,8,0.04
2013-1-8,64.4,42.5,28.8,27.4,13.3,2.7,45,31,18,30.14,30.05,6,1,6,0.04
2013-1-9,55.8,52.4,47.5,41.2,34.3,27.4,67,51,36,30.22,30.11,5,0,5,0.04
2013-1-10,69.6,55.7,50.2,39.9,26.2,17.6,65,35,17,30.25,30.11,8,1,8,0.16
2013-1-11,59.2,54.9,51.3,50.2,45.6,37.9,74,71,60,30.11,29.96,8,1,8,1.30
2013-1-12,76.5,60.3,55.8,50.4,40.2,24.1,74,51,18,29.99,29.93,7,2,7,0.04
2013-1-13,61.5,57.4,55.2,50.2,39.9,30.2,74,53,32,29.96,29.90,13,3,13,0.43
2013-1-14,60.8,59.0,57.9,53.5,51.5,49.2,77,76,70,29.93,29.87,12,2,12,1.81
2013-1-15,59.0,56.0,52.3,50.1,47.4,43.6,76,73,70,29.93,29.81,9,1,9,2.01
2013-1-16,61.5,53.6,49.5,51.5,41.6,29.1,78,65,42,29.81,29.75,8,1,8,1.22
2013-1-17,50.7,44.4,28.4,39.8,31.8,7.3,68,61,39,29.90,29.52,8,0,9,2.09
2013-1-18,62.1,36.7,24.3,19.3,3.1,-6.1,42,25,16,30.16,29.90,8,1,8,1.22
2013-1-19,62.8,39.8,26.4,19.6,4.9,-4.5,35,24,16,30.14,29.90,10,1,10,1.22
2013-1-20,69.3,44.7,33.6,22.6,6.3,-1.0,23,20,17,29.90,29.84,10,2,10,0.00
2013-1-21,64.8,41.4,27.5,20.3,4.0,-5.4,23,21,17,29.84,29.72,14,3,14,1.22
2013-1-22,47.5,28.7,18.7,7.4,-4.3,-11.4,25,23,19,29.90,29.72,16,3,19,1.22
2013-1-23,60.4,35.3,21.0,17.7,0.1,-9.4,25,22,17,29.96,29.81,15,2,15,1.22
2013-1-24,58.6,37.1,18.5,14.0,1.9,-11.4,29,22,17,30.08,29.72,20,3,20,1.22
2013-1-25,42.8,25.8,16.3,32.3,3.1,-12.5,74,39,25,30.08,29.78,11,1,11,1.22
2013-1-26,62.6,38.2,30.6,19.3,7.5,-0.6,51,29,17,30.02,29.81,10,2,10,1.22
2013-1-27,57.7,36.5,23.7,12.9,6.4,-0.4,43,29,17,30.16,30.02,8,1,8,1.22
2013-1-28,64.0,46.5,33.3,30.7,17.1,5.7,54,32,18,30.14,30.02,10,2,10,0.00
2013-1-29,69.3,54.6,47.1,47.9,26.3,8.9,71,37,17,30.02,29.84,10,2,10,1.22
2013-1-30,61.2,57.1,44.1,54.6,50.0,27.6,81,77,52,29.84,29.37,20,4,20,5.83
2013-1-31,50.9,34.9,23.4,10.1,-0.1,-5.9,32,22,19,29.78,29.60,15,3,15,0.00
2013-2-1,47.7,30.3,18.5,10.4,-2.7,-11.4,41,24,19,29.99,29.69,20,4,20,0.00
2013-2-2,47.5,27.3,17.8,14.3,-0.3,-12.1,51,31,19,29.99,29.75,7,1,7,0.00
2013-2-3,50.4,34.0,26.4,11.4,3.5,-4.7,43,28,19,29.75,29.63,11,4,15,0.16
2013-2-4,59.5,35.9,23.0,17.3,0.7,-7.5,30,22,17,29.84,29.72,8,1,8,0.00
2013-2-5,68.9,45.6,34.3,22.3,7.1,-0.6,23,20,17,29.78,29.69,10,1,10,0.00
2013-2-6,73.8,48.3,34.5,24.8,11.5,3.2,38,23,16,29.96,29.78,6,2,6,0.00
2013-2-7,44.2,40.6,38.7,26.9,12.7,2.1,58,34,20,29.99,29.72,6,0,6,0.24
2013-2-8,58.3,41.5,29.7,31.3,17.8,-1.8,65,42,17,29.84,29.69,8,1,8,0.00
2013-2-9,70.5,44.0,26.6,23.6,6.0,-6.0,31,21,17,30.05,29.84,8,1,8,0.00
2013-2-10,57.2,41.5,34.5,34.8,9.6,-0.4,67,29,17,30.11,29.93,7,1,7,0.91
2013-2-11,55.9,49.0,41.4,45.6,27.3,4.4,72,48,19,29.93,29.78,12,2,12,0.39
2013-2-12,61.3,43.6,36.5,18.8,8.4,1.0,46,24,17,29.87,29.69,10,2,10,0.08
2013-2-13,59.4,38.5,30.4,28.6,17.5,7.8,59,44,18,29.69,29.49,13,2,13,0.08
2013-2-14,62.2,39.5,26.2,19.2,8.4,-0.9,47,30,17,29.81,29.63,9,2,9,0.00
2013-2-15,68.4,43.5,32.9,21.7,9.7,1.9,41,26,17,29.84,29.72,12,2,12,0.00
2013-2-16,48.0,30.2,16.2,11.6,0.4,-12.7,41,28,19,29.72,29.57,15,2,15,0.00
2013-2-17,48.0,25.8,13.3,7.7,-6.3,-14.4,27,24,19,29.90,29.69,15,3,15,0.00
2013-2-18,62.1,37.6,21.2,19.2,1.7,-9.1,25,22,17,30.02,29.90,10,2,10,0.00
2013-2-19,35.4,33.9,28.6,18.6,11.8,-4.5,51,41,23,29.90,29.75,13,1,13,0.16
2013-2-20,61.2,36.3,24.1,18.3,0.7,-7.5,24,22,17,29.84,29.72,10,3,10,0.00
2013-2-21,66.9,43.9,31.6,21.3,7.5,-1.9,48,23,17,29.93,29.81,7,1,7,0.35
2013-2-22,45.7,37.0,32.7,40.0,21.6,17.3,81,54,45,29.96,29.81,4,0,4,0.55
2013-2-23,51.3,48.0,42.1,42.6,33.3,21.8,82,57,45,29.84,29.63,0,0,0,0.51
2013-2-24,73.6,47.2,32.9,24.7,13.9,0.4,52,29,16,29.81,29.63,10,2,10,0.51
2013-2-25,52.5,40.0,32.5,16.0,4.9,-0.4,50,23,18,29.87,29.75,6,2,6,0.51
2013-2-26,41.5,36.0,32.7,30.3,23.4,11.6,69,60,39,29.75,29.40,10,1,10,2.36
2013-2-27,67.6,43.5,31.3,21.0,10.3,3.6,40,27,17,29.57,29.46,13,3,13,0.51
2013-2-28,48.7,32.2,24.6,8.3,0.8,-3.4,36,26,19,29.63,29.49,10,3,10,0.51
2013-3-1,50.2,32.9,23.4,9.5,4.2,-1.0,45,31,19,29.66,29.60,10,2,10,0.00
2013-3-2,54.5,32.2,21.4,11.3,3.3,-8.2,46,30,18,29.63,29.57,10,2,10,0.04
2013-3-3,56.1,29.2,17.1,12.5,-2.2,-10.4,34,26,17,29.69,29.60,10,3,10,0.00
2013-3-4,61.7,35.7,17.4,19.0,0.4,-11.9,28,22,17,29.84,29.66,11,2,11,0.00
2013-3-5,48.2,40.2,28.9,36.9,16.1,1.0,68,40,21,29.81,29.46,12,2,12,0.67
2013-3-6,48.0,28.9,21.0,7.6,1.2,-5.3,44,31,19,29.81,29.43,15,4,15,0.04
2013-3-7,68.9,39.7,22.8,22.3,7.7,-2.3,45,28,17,29.96,29.78,9,3,9,0.00
2013-3-8,72.3,45.8,29.7,24.4,7.1,-3.6,25,20,16,30.02,22.40,8,2,8,0.00
2013-3-9,72.1,48.1,34.0,24.4,8.5,-0.9,22,20,16,30.05,29.99,8,1,8,0.00
2013-3-10,75.4,51.7,40.8,25.7,10.9,3.8,21,19,16,30.02,29.93,9,2,9,0.00
2013-3-11,48.0,45.7,44.8,38.0,28.9,6.4,72,55,19,29.96,29.81,10,2,10,0.16
2013-3-26,49.6,33.3,23.2,8.8,0.6,-5.6,39,25,19,29.87,29.75,12,3,12,0.00
2013-3-27,62.6,36.0,19.4,19.5,3.6,-6.5,44,27,17,29.96,29.84,8,2,9,0.00
2013-3-28,68.9,40.3,23.0,22.3,4.6,-5.9,34,23,17,30.02,29.90,13,2,13,0.00
2013-3-29,62.4,41.2,30.2,19.5,7.6,-3.1,45,26,17,30.05,29.96,8,1,8,0.00
2013-3-30,71.1,49.5,38.8,24.1,16.2,7.4,46,28,17,29.96,29.87,10,1,10,0.04
2013-3-31,66.9,52.1,44.8,41.1,30.2,16.0,69,46,17,29.87,29.69,8,1,8,0.39
2013-4-1,70.2,52.1,43.3,38.8,21.0,5.3,73,33,17,29.78,29.66,12,2,12,0.00
2013-4-2,75.0,49.9,33.1,25.5,10.4,-0.4,30,20,16,29.90,29.75,12,2,12,0.00
2013-4-3,66.9,47.8,35.2,21.3,8.4,0.2,22,20,17,29.99,29.87,9,1,9,0.00
2013-4-4,44.1,35.8,32.5,25.0,15.6,3.3,63,46,20,29.99,29.72,9,0,9,0.63
2013-4-5,76.8,50.0,35.4,35.3,21.0,3.9,75,39,15,29.87,29.66,10,2,10,0.00
2013-4-6,77.5,53.7,40.3,26.1,12.2,3.3,23,19,15,29.99,29.87,9,2,9,0.00
2013-4-7,73.0,54.3,40.6,24.2,13.7,4.1,26,20,16,29.99,29.93,10,2,10,0.00
2013-4-8,74.8,60.7,46.4,25.7,20.7,12.8,38,22,16,29.99,29.93,10,2,10,0.00
2013-4-9,88.0,66.8,54.3,31.0,24.6,18.8,36,21,13,30.05,29.96,13,3,13,0.00
2013-4-10,90.9,69.0,55.9,32.2,26.1,20.1,35,21,12,30.02,29.87,11,2,11,0.00
2013-4-11,78.1,63.0,52.7,56.7,32.1,20.1,79,36,15,29.87,29.60,15,3,17,3.66
2013-4-12,84.2,62.7,47.1,50.6,29.8,7.0,74,36,14,29.72,29.54,15,3,17,1.10
2013-4-13,82.8,58.0,42.8,28.8,15.2,6.4,25,19,14,29.87,29.66,19,4,19,0.00
2013-4-14,68.9,55.0,48.2,32.8,17.9,8.9,54,25,17,29.93,29.81,10,2,10,0.35
2013-4-15,79.7,57.4,48.6,41.4,32.5,21.0,67,43,15,30.02,29.78,6,1,6,0.35
2013-4-16,85.1,64.1,55.2,47.9,32.2,21.6,66,35,13,30.11,30.02,8,1,8,0.00
2013-4-17,85.8,62.9,55.9,47.9,35.4,23.2,66,40,13,30.11,29.99,8,1,8,1.42
2013-4-18,82.4,63.7,56.7,45.4,31.5,21.5,61,32,14,29.99,29.84,12,2,12,0.00
2013-4-19,63.3,56.8,38.1,53.7,38.9,4.5,79,54,20,29.84,29.63,15,4,15,1.97
2013-4-20,74.3,47.9,30.2,25.2,8.6,-3.3,25,20,16,30.02,29.72,15,3,15,1.97
2013-4-21,72.9,49.3,35.6,24.4,9.2,0.5,22,20,16,30.16,30.02,10,2,10,1.97
2013-4-22,76.1,50.7,35.4,25.7,13.3,4.5,40,23,15,30.14,29.99,10,2,10,0.00
2013-4-23,79.9,54.4,35.6,28.1,12.5,0.5,22,19,15,30.05,29.93,10,1,10,1.97
2013-4-24,73.6,57.2,49.8,32.0,19.9,11.5,41,24,16,29.96,29.87,8,2,8,1.97
2013-4-25,82.8,57.3,39.2,29.6,20.4,6.4,45,26,14,30.08,29.90,8,2,8,0.00
2013-4-26,78.6,56.8,41.0,27.1,13.9,4.1,21,18,15,30.16,30.08,8,3,8,1.97
2013-4-27,55.6,49.4,46.9,26.6,20.3,9.7,43,32,18,30.16,30.02,6,0,6,1.97
2013-4-28,52.9,48.9,45.3,35.4,30.0,26.3,57,48,41,30.05,29.84,4,0,4,2.60
2013-4-29,79.5,59.6,49.5,43.2,29.0,17.0,69,36,15,29.87,29.78,9,1,9,1.97
2013-4-30,83.1,60.7,50.9,42.9,26.9,17.1,70,31,14,29.99,29.81,8,1,8,0.00
2013-5-1,71.6,58.1,51.4,31.7,22.4,15.3,39,26,17,30.08,29.99,9,2,9,0.00
2013-5-2,65.7,54.0,50.7,29.7,24.7,17.4,40,33,18,30.08,30.02,7,1,7,0.08
2013-5-3,60.1,51.9,49.3,30.4,25.4,14.9,46,37,19,30.02,29.87,8,1,8,0.28
2013-5-4,49.5,46.0,41.7,31.6,24.2,18.9,55,42,35,29.87,29.75,7,1,7,1.46
2013-5-5,49.5,47.0,44.6,37.4,31.7,26.4,63,55,43,29.78,29.63,8,1,8,3.19
2013-5-6,69.6,52.1,41.7,41.7,26.0,10.1,72,42,16,29.72,29.60,8,2,8,0.28
2013-5-7,72.3,51.8,39.7,23.6,16.3,10.4,41,25,16,29.78,29.69,7,1,7,0.00
2013-5-8,70.7,56.5,46.4,31.5,20.3,14.2,50,26,17,29.90,29.75,9,1,9,0.00
2013-5-9,89.8,63.7,48.0,32.6,26.1,18.5,48,27,12,29.96,29.87,9,2,9,0.00
2013-5-10,81.1,64.7,55.9,28.3,20.9,15.3,25,19,14,29.96,29.84,10,2,10,0.00
2013-5-11,86.5,62.4,54.5,29.8,22.1,16.4,29,22,13,29.87,29.75,12,2,12,0.00
2013-5-12,78.6,56.7,41.5,27.0,17.4,4.5,35,22,15,29.87,29.72,12,3,12,0.00
2013-5-13,77.5,51.6,35.4,26.3,10.6,0.4,22,19,15,29.99,29.84,12,2,12,0.00
2013-5-14,81.9,57.0,39.2,28.3,14.5,2.6,21,19,14,30.05,29.96,10,2,10,0.00
2013-5-15,95.4,70.8,56.1,33.0,22.7,15.3,20,17,11,29.99,29.90,14,3,14,0.00
2013-5-16,92.8,67.5,57.9,32.8,21.9,15.9,25,18,12,29.96,29.90,8,1,8,0.00
2013-5-17,89.6,67.8,58.8,32.0,23.5,18.3,26,19,13,29.99,29.93,9,1,9,0.00
2013-5-18,63.7,60.7,59.0,42.4,33.9,20.6,51,37,21,29.99,29.93,8,0,8,1.18
2013-5-19,75.0,63.0,59.0,48.0,39.8,27.4,57,44,18,29.99,29.90,8,0,8,0.35
2013-5-20,89.4,66.5,57.6,47.5,36.9,23.1,64,37,13,29.99,29.93,8,1,8,0.63
2013-5-21,89.2,68.0,61.7,45.2,32.8,20.0,51,30,13,29.96,29.87,8,1,8,0.00
2013-5-22,87.1,67.4,58.5,38.1,30.5,21.9,39,27,13,29.93,29.81,10,1,10,0.87
2013-5-23,91.2,68.0,57.2,46.6,30.1,15.3,55,27,12,29.87,29.78,13,2,13,0.16
2013-5-24,85.5,61.5,45.5,29.8,18.0,6.5,27,19,13,30.05,29.78,10,2,10,0.00
2013-5-25,83.8,58.6,41.0,29.5,14.9,3.9,21,18,14,30.11,30.02,8,2,8,0.00
2013-5-26,87.4,62.8,53.6,30.6,17.6,11.1,25,17,13,30.11,29.99,10,1,10,0.00
2013-5-27,87.6,65.8,53.2,30.8,21.9,14.6,26,19,13,30.11,30.05,9,2,9,0.00
2013-5-28,89.6,68.6,58.1,32.2,24.8,18.5,29,20,13,30.08,30.02,8,1,8,0.00
2013-5-29,90.9,69.3,57.2,32.2,26.7,18.5,36,22,12,30.11,30.05,9,1,9,0.00
2013-5-30,90.9,68.9,58.1,33.1,26.4,19.0,34,21,12,30.14,30.08,8,1,8,0.00
2013-5-31,89.2,69.9,62.1,32.8,26.8,20.1,33,21,13,30.11,30.05,8,1,8,0.00
2013-6-1,88.5,69.6,61.9,35.1,28.9,21.5,36,23,13,30.05,29.93,9,1,9,0.00
2013-6-2,71.4,64.8,61.9,48.9,40.3,29.0,55,41,26,29.99,29.84,9,0,9,2.09
2013-6-3,90.1,68.8,59.9,50.8,35.6,22.6,66,34,12,29.90,29.78,8,1,9,0.04
2013-6-4,91.4,69.2,58.8,32.4,26.9,18.5,34,22,12,29.99,29.87,8,1,8,0.04
2013-6-5,84.6,68.1,60.4,40.4,32.3,23.2,44,28,14,29.99,29.87,9,1,9,2.13
2013-6-6,75.6,65.0,59.7,56.0,38.7,29.3,68,40,21,29.90,29.72,5,0,5,0.31
2013-6-7,94.3,68.9,61.7,48.4,36.5,23.9,54,34,11,29.75,29.63,8,1,8,0.28
2013-6-8,86.2,67.5,57.9,44.9,32.9,23.1,59,31,13,30.02,29.75,6,1,6,0.04
2013-6-9,89.4,67.6,61.9,49.3,35.4,23.8,58,33,13,30.05,29.96,8,1,8,3.23
2013-6-10,84.9,67.7,60.6,54.3,40.6,23.5,68,42,13,29.96,29.84,12,2,12,2.13
2013-6-11,93.9,72.1,60.3,42.4,31.9,20.6,51,26,11,29.96,29.87,10,2,10,0.12
2013-6-12,100.4,75.0,62.1,34.9,29.1,23.4,35,19,10,29.99,29.90,8,2,8,0.04
2013-6-13,95.5,72.1,61.7,40.5,30.7,22.3,45,24,11,29.93,29.72,15,3,15,0.39
2013-6-14,92.1,67.4,53.1,44.2,27.0,15.3,51,24,12,29.96,29.75,9,1,9,0.00
2013-6-15,88.7,67.9,56.3,31.5,21.6,15.3,22,17,13,30.02,29.96,10,2,10,0.00
2013-6-16,91.8,71.2,59.9,32.0,25.2,18.0,25,18,12,30.05,29.96,8,1,8,0.00
2013-6-17,88.5,70.4,63.5,39.7,33.1,24.7,39,27,13,29.99,29.90,6,0,6,1.22
2013-6-18,85.3,69.6,62.6,45.2,35.0,23.9,50,31,13,29.90,29.78,8,1,8,0.00
2013-6-19,86.5,67.2,59.0,37.3,30.4,23.1,40,27,13,30.02,29.84,6,0,6,0.00
2013-6-20,85.1,66.7,58.1,40.7,29.8,21.6,47,27,13,30.11,29.99,8,1,8,0.00
2013-6-21,91.4,70.1,59.2,44.6,30.4,20.9,54,26,12,30.14,30.08,10,1,10,0.00
2013-6-22,92.1,69.4,56.8,34.7,28.3,19.3,39,24,12,30.14,30.05,7,1,8,0.00
2013-6-23,88.3,69.2,61.3,42.9,29.3,23.4,42,24,13,30.11,30.05,8,0,8,1.50
2013-6-24,85.6,69.8,62.6,56.1,36.9,25.0,63,34,13,30.14,30.02,5,1,7,0.55
2013-6-25,92.1,70.3,63.5,48.6,31.8,23.1,54,26,12,30.08,29.99,6,1,6,0.75
2013-6-26,91.8,70.7,62.8,49.0,37.6,24.1,58,34,12,29.99,29.90,12,0,12,0.08
2013-6-27,94.5,73.7,63.1,46.1,33.0,23.8,51,25,11,29.93,29.75,9,1,9,0.12
2013-6-28,95.4,73.9,63.0,46.4,31.5,22.5,51,23,11,29.81,29.63,11,2,11,0.08
2013-6-29,94.8,71.8,60.3,33.5,27.4,19.6,36,20,11,29.69,29.60,8,1,8,0.08
2013-6-30,90.0,70.0,61.7,32.5,23.6,18.5,30,18,12,29.78,29.66,6,1,6,0.87
2013-7-1,85.6,67.3,59.7,46.1,34.9,23.5,59,33,13,29.90,29.75,8,1,8,3.15
2013-7-2,84.9,69.4,63.0,53.0,36.3,23.1,67,33,13,30.05,29.87,8,2,8,1.18
2013-7-3,74.5,65.5,60.3,51.0,43.0,29.6,60,45,21,30.11,29.99,9,1,9,2.24
2013-7-4,67.8,63.2,60.3,52.9,40.6,35.2,65,44,39,30.11,30.05,8,1,8,3.50
2013-7-5,79.2,68.8,63.9,57.0,44.7,25.0,76,50,15,30.14,30.05,8,1,8,0.59
2013-7-6,86.4,69.7,65.1,53.4,37.1,24.8,60,33,13,30.11,30.02,8,2,8,1.77
2013-7-7,76.1,71.4,67.8,53.4,44.4,34.5,60,42,22,30.08,30.02,6,1,6,0.43
2013-7-8,76.1,67.6,63.7,42.0,39.9,34.5,44,38,22,30.11,30.05,6,1,6,0.08
2013-7-9,87.4,72.1,64.4,42.0,35.7,28.0,44,30,13,30.11,30.02,6,0,6,0.28
2013-7-10,92.5,78.8,74.5,33.3,27.8,26.3,22,15,12,30.08,29.93,6,0,6,0.55
2013-7-11,81.3,75.5,69.8,43.3,30.5,26.3,36,20,15,29.93,29.84,5,0,5,0.00
2013-7-12,89.4,70.4,68.0,34.3,30.7,23.2,27,23,13,29.93,29.84,7,1,7,1.14
2013-7-13,81.3,68.4,64.9,35.2,29.9,24.1,33,24,14,30.02,29.90,6,1,6,0.59
2013-7-14,68.9,66.2,64.9,38.8,37.0,32.0,36,34,26,30.16,29.99,8,1,8,1.02
2013-7-15,88.9,72.1,64.2,40.7,35.2,27.9,42,29,13,30.22,30.16,8,1,8,0.04
2013-7-16,92.8,80.5,70.3,32.8,31.0,29.7,22,17,12,30.22,30.19,8,1,8,0.00
2013-7-17,97.3,91.5,85.1,34.1,32.3,28.8,13,12,11,30.19,30.11,5,0,5,0.16
2013-7-18,93.9,87.1,80.6,32.5,30.6,27.0,14,13,11,30.14,30.05,8,1,8,0.00
2013-7-19,94.5,80.3,68.7,32.8,28.1,24.7,26,15,11,30.08,29.96,8,1,8,0.00
2013-7-20,88.7,70.3,66.0,42.0,35.0,27.2,40,28,13,30.02,29.90,6,0,6,0.43
2013-7-21,88.9,69.4,64.4,49.2,36.0,26.6,51,31,13,29.96,29.90,6,0,6,1.26
2013-7-22,92.7,71.7,64.0,53.2,34.8,25.0,59,28,12,29.96,29.84,9,1,9,0.08
2013-7-23,93.9,75.4,62.2,46.1,35.8,26.9,53,28,11,29.87,29.78,10,1,10,0.08
2013-7-24,93.0,70.0,64.2,41.4,34.5,25.0,43,30,12,29.81,29.75,7,1,8,0.04
2013-7-25,74.8,65.9,64.9,38.1,31.2,25.7,34,27,16,29.96,29.78,6,2,6,0.47
2013-7-26,89.4,76.4,66.4,36.4,33.8,28.4,33,24,13,30.02,29.96,7,1,7,0.00
2013-7-27,88.0,80.0,65.8,37.7,30.8,25.1,34,18,13,29.96,29.84,5,1,5,0.12
2013-7-28,83.3,68.6,61.7,36.7,30.5,20.7,34,25,14,29.93,29.84,6,1,6,0.00
2013-7-29,94.8,71.6,60.1,32.8,28.7,23.2,31,22,11,30.11,29.93,8,1,8,0.00
2013-7-30,89.6,73.2,61.3,32.0,28.6,24.3,28,20,12,30.11,30.08,6,1,6,0.00
2013-7-31,69.6,69.6,69.6,26.8,26.8,26.8,20,20,20,30.11,29.90,5,0,5,0.16
2013-8-1,99.3,78.1,69.6,33.2,28.4,26.8,20,17,10,29.93,29.84,6,1,6,0.00
2013-8-2,91.0,87.5,83.8,31.4,30.2,28.5,14,13,12,29.99,29.87,6,1,6,0.00
2013-8-3,92.1,84.3,66.6,32.3,29.3,20.4,22,14,12,29.99,29.93,5,1,5,0.00
2013-8-4,97.0,74.8,62.1,35.9,28.4,18.8,34,19,11,29.99,29.90,8,2,8,0.00
2013-8-5,91.9,71.6,62.1,37.1,25.6,19.0,33,18,12,29.99,29.93,9,1,232,0.00
2013-8-6,89.6,72.4,66.2,38.5,34.6,25.6,34,27,12,29.96,29.90,6,1,6,0.00
2013-10-25,70.5,42.9,27.3,23.5,5.6,-5.4,28,21,16,30.05,29.96,0,0,0,0.00
2013-10-26,67.3,41.8,27.7,21.3,4.3,-5.3,23,21,17,30.05,29.87,2,0,2,0.00
2013-10-27,75.2,52.7,41.9,25.4,14.3,6.7,29,22,15,29.93,29.81,0,0,0,0.00
2013-10-28,72.3,54.3,48.4,24.4,19.5,14.3,34,26,16,30.05,29.90,0,0,0,0.04
2013-10-29,76.3,55.3,46.4,33.4,21.7,14.0,54,29,15,30.14,30.05,0,0,0,0.00
2013-10-30,87.6,61.6,52.0,30.8,22.9,17.0,36,24,13,30.11,30.02,0,0,0,0.00
2013-10-31,60.1,57.3,54.9,38.0,22.5,15.3,45,26,19,30.02,29.75,10,0,10,0.28
2013-11-1,85.5,62.1,48.0,46.6,31.5,12.1,63,36,13,29.75,29.57,14,2,14,0.55
2013-11-2,74.7,49.2,38.3,25.1,12.8,3.0,31,23,16,29.81,29.63,10,2,10,0.00
2013-11-3,75.6,45.8,33.6,25.8,9.0,1.8,31,23,15,30.08,29.75,7,1,7,0.00
2013-11-4,72.3,43.5,32.0,24.2,7.0,-0.9,30,22,16,30.22,30.08,6,1,6,0.00
2013-11-5,76.8,45.4,29.5,25.8,8.7,0.3,32,23,15,30.22,30.14,6,1,6,0.00
2013-11-6,73.8,54.0,46.6,27.3,20.8,10.1,37,28,16,30.16,29.96,7,0,7,0.28
2013-11-7,79.5,53.9,32.2,30.0,17.7,-1.6,36,25,15,29.96,29.84,11,1,11,0.04
2013-11-8,75.0,43.4,27.3,25.8,5.4,-5.6,23,21,16,30.05,29.90,8,1,8,0.00
2013-11-9,64.0,42.9,32.7,19.7,5.0,-1.0,23,20,17,30.08,29.99,6,1,6,0.00
2013-11-10,81.7,53.9,42.3,28.4,11.9,4.5,21,19,14,30.05,29.99,11,2,11,0.00
2013-11-11,74.3,48.9,38.7,25.1,9.1,2.1,21,20,16,30.08,29.96,9,2,9,0.00
2013-11-12,66.2,41.7,16.2,21.2,4.0,-12.7,26,21,17,30.11,29.87,8,2,8,0.00
2013-11-13,67.8,35.2,15.3,21.2,-0.0,-13.5,26,22,17,30.16,30.08,8,1,8,0.00
2013-11-14,73.0,43.8,29.5,24.2,5.8,-3.7,23,21,16,30.14,30.05,8,1,8,0.00
2013-11-15,49.5,45.4,36.1,24.0,12.6,1.0,38,27,19,30.05,29.96,8,0,8,0.35
2013-11-16,65.8,51.6,46.9,31.1,24.7,15.3,45,36,18,30.05,29.96,7,0,7,0.04
2013-11-17,58.3,54.6,51.8,37.3,31.1,26.4,47,41,37,30.02,29.75,9,0,9,0.63
2013-11-18,79.3,55.4,37.2,45.8,20.3,1.0,64,28,15,29.81,29.72,9,2,9,0.00
2013-11-19,72.3,43.4,32.9,23.9,5.6,-1.0,23,21,16,29.96,29.78,10,2,10,0.00
2013-11-20,67.5,40.0,25.7,21.3,3.4,-6.0,29,21,17,30.14,29.96,9,1,9,0.00
2013-11-21,51.1,45.5,37.4,26.8,14.9,1.0,39,29,21,30.19,30.11,5,0,5,0.47
2013-11-22,68.2,54.5,50.2,37.9,27.3,16.8,50,36,17,30.14,29.96,6,0,6,0.04
2013-11-23,59.5,47.2,29.3,42.7,16.3,-3.9,71,31,17,29.96,29.87,10,2,10,0.04
2013-11-24,60.3,34.1,17.8,17.9,-1.0,-12.1,25,22,17,30.11,29.90,8,2,8,0.04
2013-11-25,34.2,31.2,28.2,-0.2,-2.4,-4.8,23,23,22,30.05,29.99,6,0,6,0.00
2013-11-26,47.1,41.4,29.3,41.0,29.6,-1.4,80,64,25,29.99,29.46,9,1,9,4.49
2013-11-27,49.6,31.6,16.5,38.0,4.6,-12.5,76,34,19,29.84,29.40,14,2,14,0.08
2013-11-28,65.7,32.2,14.5,21.0,-1.9,-14.1,29,23,16,30.14,29.84,8,2,8,0.08
2013-11-29,74.3,41.2,28.6,25.0,4.1,-4.5,23,21,16,30.25,30.11,6,2,6,0.08
2013-11-30,67.3,34.9,22.1,20.4,0.3,-7.9,30,23,16,30.25,30.05,6,1,6,0.08
2013-12-1,69.3,46.3,35.1,21.9,7.7,-0.2,29,20,17,30.05,29.78,6,1,6,0.08
2013-12-2,65.8,44.0,37.2,21.2,9.2,1.0,40,25,17,29.78,29.60,6,1,6,0.08
2013-12-3,50.4,46.5,43.0,37.4,27.1,17.9,66,47,33,29.75,29.63,4,0,4,0.08
2013-12-4,60.3,53.2,48.0,48.0,36.1,20.7,74,55,24,29.90,29.75,6,0,6,0.08
2013-12-5,64.4,59.2,55.8,53.7,46.3,31.4,74,64,32,29.93,29.84,13,1,13,1.38
2013-12-6,63.1,61.5,55.2,53.5,48.0,33.1,73,62,34,29.93,29.81,17,3,17,1.65
2013-12-7,63.3,51.6,41.5,49.5,28.4,9.8,74,46,17,30.11,29.84,6,1,6,0.79
2013-12-8,41.5,38.2,35.8,30.9,21.8,13.5,67,52,34,30.08,29.93,5,0,5,0.79
2013-12-9,70.3,49.8,37.4,45.9,30.3,10.1,75,51,17,29.93,29.81,8,1,8,1.46
2013-12-10,61.7,43.9,26.1,45.4,14.6,-6.0,75,34,16,29.99,29.69,14,3,14,0.79
2013-12-11,70.2,37.9,24.6,22.9,1.7,-7.0,24,21,15,30.11,29.99,8,1,8,0.00
2013-12-12,55.0,34.1,23.2,12.3,-0.8,-8.2,24,22,18,30.05,29.96,10,2,10,0.16
2013-12-13,55.6,36.8,27.5,12.5,1.1,-5.4,23,22,17,30.05,29.93,8,1,8,0.00
2013-12-14,45.3,40.4,36.1,33.0,17.7,1.0,65,42,21,29.96,29.57,4,0,4,1.22
2013-12-15,52.2,38.2,28.4,33.0,7.7,-4.7,64,30,18,29.81,29.54,10,3,10,0.00
2013-12-16,59.4,39.9,28.0,14.3,2.9,-4.8,26,21,17,29.90,29.81,12,2,12,0.00
2013-12-17,63.5,45.2,34.3,19.6,6.6,-0.7,22,20,17,29.90,29.78,15,3,15,0.00
2013-12-18,57.0,37.6,25.5,12.5,1.4,-6.2,24,21,17,30.02,29.78,14,2,14,0.00
2013-12-19,66.4,47.7,40.1,21.3,8.4,3.2,21,20,17,30.05,29.96,10,1,10,0.00
2013-12-20,62.4,48.2,41.0,20.9,9.5,4.1,30,21,17,29.99,29.93,10,1,10,0.00
2013-12-21,60.4,55.3,51.1,51.4,38.5,20.1,73,56,29,29.93,29.84,13,2,13,0.83
2013-12-22,61.2,57.4,54.5,53.5,49.7,47.1,76,75,71,29.90,29.81,17,2,17,3.50
2013-12-23,55.2,48.5,34.0,48.2,29.3,0.0,77,52,1,29.93,29.84,9,1,9,0.24
2013-12-24,45.9,30.5,21.2,11.9,-0.8,-9.1,40,26,20,30.05,29.90,8,2,8,0.00
2013-12-25,44.6,27.6,19.8,6.0,-4.9,-10.4,59,24,20,30.11,29.99,6,1,6,0.00
2013-12-26,57.0,36.8,23.5,12.5,1.0,-7.9,24,22,17,30.05,29.96,10,2,10,0.00
2013-12-27,57.9,38.8,30.4,13.4,2.4,-3.0,23,21,17,30.14,30.05,6,2,6,0.00
2013-12-28,48.7,41.2,36.9,21.1,6.0,1.0,51,23,19,30.11,29.84,5,0,5,0.39
2013-12-29,61.5,45.0,36.7,39.0,19.5,1.0,69,41,17,29.84,29.60,11,2,11,1.46
2013-12-30,48.7,40.1,35.8,8.8,5.1,1.0,29,23,19,29.87,29.72,11,2,11,0.00
2013-12-31,47.5,35.0,29.1,7.3,0.0,-4.1,23,22,19,30.05,29.84,8,1,8,0.00
2014-1-1,46.9,35.8,31.6,7.1,0.8,-1.9,23,22,19,30.05,29.84,148,1,148,0.00
2014-1-2,46.0,35.5,16.0,25.6,6.9,-13.0,45,30,22,29.84,29.46,17,2,17,0.08